Time;durP1;ratioP1;P1;durP2;ratioP2;P2;SDS_P1;SDS_P2;PMS_P1;PMS_P2;Temp;Humidity;BMP_temperature;BMP_pressure;BME280_temperature;BME280_humidity;BME280_pressure;Samples;Min_cycle;Max_cycle;Signal;HPM_P1;HPM_P2
2020/12/18 00:07:53;;;;;;;1.50;0.82;;;11.70;67.50;;;;;;20735302;28;20076;-73
2020/12/18 00:17:54;;;;;;;2.65;1.08;;;11.80;67.60;;;;;;20749823;28;20086;-74
2020/12/18 00:27:54;;;;;;;1.33;0.82;;;11.80;67.60;;;;;;20740332;28;20417;-74
2020/12/18 00:37:56;;;;;;;0.60;0.55;;;11.80;67.60;;;;;;20787302;28;20036;-73
2020/12/18 00:47:57;;;;;;;0.60;0.32;;;11.80;67.60;;;;;;20770992;28;20022;-73
2020/12/18 00:57:57;;;;;;;1.35;0.63;;;11.80;67.60;;;;;;20723084;28;20534;-73
2020/12/18 01:07:58;;;;;;;0.98;0.77;;;11.80;67.70;;;;;;20760957;28;20038;-74
2020/12/18 01:18:00;;;;;;;2.20;0.85;;;11.70;67.60;;;;;;20737907;28;20115;-74
2020/12/18 01:28:02;;;;;;;1.25;0.50;;;11.70;67.60;;;;;;20748983;28;20080;-73
2020/12/18 01:38:03;;;;;;;0.77;0.68;;;11.70;67.60;;;;;;20768146;28;20034;-73
2020/12/18 01:48:05;;;;;;;1.95;1.17;;;11.80;67.60;;;;;;20745404;28;20480;-73
2020/12/18 01:58:15;;;;;;;0.93;0.73;;;11.80;67.70;;;;;;20734142;28;20033;-75
2020/12/18 02:08:20;;;;;;;0.60;0.60;;;11.70;67.50;;;;;;20753569;28;20053;-73
2020/12/18 02:18:43;;;;;;;2.58;1.13;;;11.70;67.60;;;;;;20719851;28;20180;-74
2020/12/18 02:28:47;;;;;;;0.70;0.60;;;11.70;67.60;;;;;;20755535;28;20037;-73
2020/12/18 02:38:56;;;;;;;1.40;0.60;;;11.70;67.60;;;;;;20738405;28;20042;-75
2020/12/18 02:48:56;;;;;;;1.27;0.65;;;11.70;67.50;;;;;;20724954;28;20121;-73
2020/12/18 02:59:29;;;;;;;0.50;0.45;;;11.70;67.50;;;;;;20751609;28;20046;-74
2020/12/18 03:09:31;;;;;;;0.57;0.57;;;11.70;67.50;;;;;;20730488;28;20389;-74
2020/12/18 03:19:31;;;;;;;0.40;0.40;;;11.70;67.50;;;;;;20753329;28;20033;-74
2020/12/18 03:29:43;;;;;;;2.80;0.45;;;11.70;67.60;;;;;;20755163;28;20044;-74
2020/12/18 03:39:45;;;;;;;1.20;0.60;;;11.70;67.50;;;;;;20746242;28;20103;-75
2020/12/18 03:50:09;;;;;;;1.20;0.38;;;11.70;67.50;;;;;;20775654;28;20583;-73
2020/12/18 04:00:10;;;;;;;0.70;0.43;;;11.70;67.50;;;;;;20786024;28;20042;-73
2020/12/18 04:10:13;;;;;;;2.53;0.98;;;11.70;67.50;;;;;;20766457;28;20057;-73
2020/12/18 04:20:29;;;;;;;1.33;0.68;;;11.70;67.50;;;;;;20753171;28;20069;-73
2020/12/18 04:30:51;;;;;;;0.38;0.32;;;11.70;67.50;;;;;;20745863;28;20050;-73
2020/12/18 04:40:52;;;;;;;1.45;0.80;;;11.70;67.50;;;;;;20785659;28;20476;-73
2020/12/18 04:50:59;;;;;;;0.85;0.63;;;11.70;67.40;;;;;;20751211;28;20026;-74
2020/12/18 05:01:06;;;;;;;0.40;0.20;;;11.60;67.40;;;;;;20730530;28;20061;-73
2020/12/18 05:11:26;;;;;;;0.88;0.52;;;11.60;67.40;;;;;;20740424;28;20129;-74
2020/12/18 05:21:35;;;;;;;0.40;0.35;;;11.70;67.60;;;;;;20761101;28;20038;-74
2020/12/18 05:31:43;;;;;;;0.20;0.20;;;11.80;67.40;;;;;;20720894;28;20042;-75
2020/12/18 05:41:59;;;;;;;0.70;0.43;;;12.00;67.20;;;;;;20727101;28;20116;-72
2020/12/18 05:52:05;;;;;;;1.58;0.40;;;12.20;66.80;;;;;;20732754;28;20056;-71
2020/12/18 06:02:22;;;;;;;1.02;0.68;;;12.40;66.20;;;;;;20743546;28;20029;-72
2020/12/18 06:12:31;;;;;;;0.47;0.40;;;12.50;65.40;;;;;;20745348;28;20052;-74
2020/12/18 06:22:32;;;;;;;0.82;0.50;;;12.60;65.00;;;;;;20729598;28;20035;-72
2020/12/18 06:32:44;;;;;;;0.75;0.50;;;12.60;64.50;;;;;;20709233;28;20435;-72
2020/12/18 06:43:08;;;;;;;1.13;0.38;;;12.60;64.40;;;;;;20729313;28;20119;-72
2020/12/18 06:53:44;;;;;;;1.65;0.50;;;12.50;64.10;;;;;;20748092;28;20045;-73
2020/12/18 07:03:56;;;;;;;0.82;0.35;;;12.40;64.30;;;;;;20754008;28;20068;-75
2020/12/18 07:13:59;;;;;;;1.25;0.75;;;12.30;64.50;;;;;;20734073;28;20038;-73
2020/12/18 07:24:00;;;;;;;6.43;1.00;;;12.20;64.70;;;;;;20739873;28;20048;-74
2020/12/18 07:34:00;;;;;;;1.15;0.68;;;12.10;64.90;;;;;;20741999;28;20442;-74
2020/12/18 07:44:05;;;;;;;0.77;0.60;;;12.00;65.20;;;;;;20771667;28;20456;-74
2020/12/18 07:54:05;;;;;;;0.52;0.40;;;12.00;65.30;;;;;;20780508;28;20289;-74
2020/12/18 08:04:12;;;;;;;0.43;0.43;;;12.00;65.50;;;;;;20770811;28;20034;-77
2020/12/18 08:14:14;;;;;;;1.33;0.60;;;11.90;65.60;;;;;;20754277;28;20050;-76
2020/12/18 08:24:21;;;;;;;0.93;0.40;;;11.90;65.50;;;;;;20776351;28;20399;-83
2020/12/18 08:34:26;;;;;;;0.80;0.40;;;11.90;65.70;;;;;;20799999;28;20288;-77
2020/12/18 08:44:29;;;;;;;0.68;0.52;;;11.90;65.60;;;;;;20765301;28;20076;-84
2020/12/18 08:54:31;;;;;;;0.50;0.35;;;11.90;65.70;;;;;;20737303;28;20041;-77
2020/12/18 09:04:32;;;;;;;0.32;0.28;;;12.00;65.70;;;;;;20746635;28;20595;-77
2020/12/18 09:14:33;;;;;;;1.17;0.50;;;12.00;65.70;;;;;;21213506;23;20033;-71
2020/12/18 09:24:33;;;;;;;0.50;0.30;;;12.00;65.70;;;;;;20853076;28;20383;-71
2020/12/18 09:34:34;;;;;;;0.75;0.45;;;12.00;66.30;;;;;;20870567;28;20302;-71
2020/12/18 09:44:35;;;;;;;0.25;0.25;;;12.00;65.70;;;;;;20860629;28;20037;-71
2020/12/18 09:54:35;;;;;;;0.35;0.35;;;12.00;65.70;;;;;;20875887;28;20556;-69
2020/12/18 10:04:36;;;;;;;1.77;0.60;;;12.00;65.70;;;;;;20871621;28;20045;-70
2020/12/18 10:14:36;;;;;;;0.17;0.15;;;11.90;65.60;;;;;;20900644;28;20362;-71
2020/12/18 10:24:37;;;;;;;0.20;0.20;;;11.90;65.70;;;;;;20878527;28;20051;-71
2020/12/18 10:34:38;;;;;;;1.13;0.52;;;11.90;65.80;;;;;;20881348;28;20770;-70
2020/12/18 10:44:39;;;;;;;0.28;0.28;;;11.90;65.90;;;;;;20864472;28;20044;-76
2020/12/18 10:54:39;;;;;;;0.30;0.30;;;11.90;65.90;;;;;;20845752;28;20487;-72
2020/12/18 11:04:40;;;;;;;0.20;0.20;;;11.90;66.00;;;;;;20876584;28;20140;-76
2020/12/18 11:14:40;;;;;;;0.87;0.50;;;11.90;66.10;;;;;;20901978;28;20049;-74
2020/12/18 11:24:42;;;;;;;1.25;0.40;;;11.90;66.10;;;;;;20830295;28;20690;-77
2020/12/18 11:34:43;;;;;;;0.80;0.60;;;11.90;66.20;;;;;;20839913;28;20281;-71
2020/12/18 11:44:43;;;;;;;3.30;0.73;;;11.90;66.20;;;;;;20878514;28;20490;-73
2020/12/18 11:54:44;;;;;;;5.32;0.47;;;11.90;66.20;;;;;;20888084;28;20294;-74
2020/12/18 12:04:45;;;;;;;0.50;0.50;;;11.90;66.20;;;;;;20876470;28;20041;-75
2020/12/18 12:14:45;;;;;;;0.60;0.45;;;11.90;66.30;;;;;;20900428;28;20291;-75
2020/12/18 12:24:47;;;;;;;0.20;0.20;;;11.90;66.40;;;;;;20872253;28;20282;-76
2020/12/18 12:34:48;;;;;;;0.55;0.38;;;11.90;66.40;;;;;;20852737;28;20288;-78
2020/12/18 12:44:51;;;;;;;0.50;0.32;;;11.80;66.30;;;;;;20922464;28;20032;-76
2020/12/18 12:54:53;;;;;;;0.90;0.70;;;11.90;66.40;;;;;;20918025;28;20029;-76
2020/12/18 13:04:54;;;;;;;0.38;0.30;;;11.90;66.40;;;;;;20930535;28;20484;-77
2020/12/18 13:14:58;;;;;;;0.90;0.22;;;11.90;66.40;;;;;;20935132;28;20323;-77
2020/12/18 13:25:07;;;;;;;0.30;0.30;;;11.90;66.50;;;;;;20905181;28;20068;-76
2020/12/18 13:35:07;;;;;;;2.08;0.50;;;11.90;66.40;;;;;;20875263;28;20084;-75
2020/12/18 13:45:09;;;;;;;0.90;0.70;;;11.90;66.50;;;;;;20906032;28;20077;-77
2020/12/18 13:55:10;;;;;;;0.25;0.20;;;11.90;66.40;;;;;;20891039;28;20044;-77
2020/12/18 14:05:12;;;;;;;0.30;0.20;;;11.90;66.50;;;;;;20867423;28;20084;-76
2020/12/18 14:15:13;;;;;;;0.30;0.30;;;11.90;66.50;;;;;;20897250;28;20422;-78
2020/12/18 14:25:16;;;;;;;0.68;0.35;;;12.00;66.70;;;;;;20884946;28;20123;-78
2020/12/18 14:35:20;;;;;;;1.70;0.50;;;12.00;66.30;;;;;;20909063;28;20033;-71
2020/12/18 14:45:20;;;;;;;8.27;0.93;;;11.90;67.10;;;;;;20901114;28;20195;-71
2020/12/18 14:55:21;;;;;;;7.40;1.80;;;12.20;67.20;;;;;;20871422;28;20137;-71
2020/12/18 15:05:22;;;;;;;2.10;0.60;;;12.20;66.50;;;;;;20857155;28;20306;-71
2020/12/18 15:15:26;;;;;;;0.25;0.25;;;12.00;66.30;;;;;;20852233;28;20042;-72
2020/12/18 15:25:29;;;;;;;0.75;0.50;;;12.20;67.10;;;;;;20887848;28;20037;-71
2020/12/18 15:35:30;;;;;;;0.88;0.65;;;12.30;66.40;;;;;;20888430;28;20029;-72
2020/12/18 15:45:31;;;;;;;1.85;0.47;;;12.30;66.80;;;;;;20896764;28;20363;-72
2020/12/18 15:55:31;;;;;;;3.47;0.82;;;12.40;66.80;;;;;;20903452;28;20057;-70
2020/12/18 16:05:32;;;;;;;7.77;1.90;;;12.50;66.50;;;;;;20896970;28;20040;-70
2020/12/18 16:15:33;;;;;;;10.18;2.42;;;12.30;65.80;;;;;;20908593;28;20328;-71
2020/12/18 16:25:34;;;;;;;2.88;1.08;;;12.40;66.50;;;;;;20890460;28;20033;-75
2020/12/18 16:35:34;;;;;;;14.40;2.60;;;12.50;66.30;;;;;;20883660;28;20450;-72
2020/12/18 16:45:35;;;;;;;4.55;1.55;;;12.50;66.50;;;;;;20901016;28;20090;-73
2020/12/18 16:55:39;;;;;;;2.88;1.15;;;12.60;66.50;;;;;;20881072;28;20040;-78
2020/12/18 17:05:44;;;;;;;1.58;0.55;;;12.60;66.60;;;;;;20848207;28;20398;-75
2020/12/18 17:15:44;;;;;;;2.70;1.02;;;12.60;66.50;;;;;;20917575;28;20068;-71
2020/12/18 17:25:46;;;;;;;2.05;1.02;;;12.70;66.90;;;;;;20876620;28;20132;-79
2020/12/18 17:35:47;;;;;;;2.67;1.30;;;12.70;66.70;;;;;;20898517;28;20038;-77
2020/12/18 17:45:48;;;;;;;3.83;1.10;;;12.70;66.70;;;;;;20901024;28;20124;-77
2020/12/18 17:55:48;;;;;;;2.15;1.10;;;12.70;66.50;;;;;;20884430;28;20123;-73
2020/12/18 18:05:49;;;;;;;1.95;0.90;;;12.50;66.50;;;;;;20876796;28;20491;-71
2020/12/18 18:15:51;;;;;;;5.87;0.87;;;12.40;66.60;;;;;;20869017;28;20294;-70
2020/12/18 18:25:52;;;;;;;1.25;0.73;;;12.40;66.80;;;;;;20868879;28;20309;-73
2020/12/18 18:35:52;;;;;;;1.42;1.00;;;12.20;66.70;;;;;;20857386;28;20033;-72
2020/12/18 18:45:53;;;;;;;1.45;0.80;;;12.20;66.60;;;;;;20869570;28;20631;-74
2020/12/18 18:55:53;;;;;;;0.68;0.57;;;12.20;66.50;;;;;;20808539;28;20499;-72
2020/12/18 19:05:55;;;;;;;3.13;1.58;;;12.10;66.40;;;;;;20887549;28;20113;-74
2020/12/18 19:15:57;;;;;;;1.20;0.50;;;12.00;66.20;;;;;;20880874;28;20029;-73
2020/12/18 19:25:58;;;;;;;9.57;0.88;;;12.00;66.20;;;;;;20857860;28;20098;-72
2020/12/18 19:35:58;;;;;;;0.40;0.40;;;12.00;66.20;;;;;;20892037;28;20420;-72
2020/12/18 19:45:59;;;;;;;1.35;0.68;;;11.90;66.10;;;;;;20867791;28;20044;-72
2020/12/18 19:56:00;;;;;;;1.55;0.65;;;11.90;66.10;;;;;;20854523;28;20029;-73
2020/12/18 20:06:02;;;;;;;0.98;0.65;;;11.90;66.70;;;;;;20864709;28;20487;-71
2020/12/18 20:16:03;;;;;;;1.13;0.57;;;11.80;65.90;;;;;;20868526;28;20036;-72
2020/12/18 20:26:04;;;;;;;0.52;0.38;;;11.80;65.80;;;;;;20887916;28;20041;-72
2020/12/18 20:36:09;;;;;;;0.68;0.52;;;11.80;65.80;;;;;;20876382;28;20037;-71
2020/12/18 20:46:11;;;;;;;1.48;0.93;;;11.80;65.70;;;;;;20869379;28;20124;-71
2020/12/18 20:56:13;;;;;;;1.33;0.60;;;11.80;65.70;;;;;;20865527;28;20068;-72
2020/12/18 21:06:13;;;;;;;0.68;0.45;;;11.70;65.60;;;;;;20869886;28;20083;-72
2020/12/18 21:16:14;;;;;;;0.75;0.60;;;11.70;65.50;;;;;;20892955;28;20108;-71
2020/12/18 21:26:15;;;;;;;0.70;0.60;;;11.70;65.50;;;;;;20894123;28;20048;-71
2020/12/18 21:36:23;;;;;;;1.95;0.70;;;11.70;65.40;;;;;;20898709;28;20398;-72
2020/12/18 21:46:25;;;;;;;1.85;0.70;;;11.70;65.40;;;;;;20896581;28;20045;-72
2020/12/18 21:56:25;;;;;;;2.08;1.00;;;11.70;65.10;;;;;;20889021;28;20542;-73
2020/12/18 22:06:26;;;;;;;1.52;0.90;;;11.70;65.00;;;;;;20879547;28;20049;-72
2020/12/18 22:16:26;;;;;;;1.08;0.50;;;11.70;65.00;;;;;;20869319;28;20063;-72
2020/12/18 22:26:27;;;;;;;1.55;0.70;;;11.70;64.80;;;;;;20867668;28;20033;-71
2020/12/18 22:36:32;;;;;;;1.00;0.40;;;11.70;64.60;;;;;;20885790;28;20137;-72
2020/12/18 22:46:34;;;;;;;1.70;0.95;;;11.70;64.40;;;;;;20867685;28;20039;-72
2020/12/18 22:56:34;;;;;;;2.10;0.93;;;11.70;64.30;;;;;;20888356;28;20120;-73
2020/12/18 23:06:37;;;;;;;1.35;0.75;;;11.70;64.10;;;;;;20914034;28;20060;-72
2020/12/18 23:16:38;;;;;;;1.33;0.80;;;11.70;64.00;;;;;;20888933;28;20400;-71
2020/12/18 23:26:40;;;;;;;0.75;0.50;;;11.60;63.90;;;;;;20873722;28;20032;-73
2020/12/18 23:36:41;;;;;;;3.03;1.45;;;11.60;63.90;;;;;;20859023;28;20029;-71
2020/12/18 23:46:41;;;;;;;2.95;0.98;;;11.60;63.90;;;;;;20913166;28;20048;-74
2020/12/18 23:56:42;;;;;;;2.42;1.15;;;11.60;64.00;;;;;;20877257;28;20029;-72
